createdAt,value
2019-02-04T00:00:07.019Z,29.20
2019-02-04T00:01:06.788Z,32.50
2019-02-04T00:02:06.794Z,35.60
2019-02-04T00:03:06.800Z,33.50
2019-02-04T00:04:06.768Z,30.80
2019-02-04T00:05:06.764Z,30.50
2019-02-04T00:06:06.735Z,30.20
2019-02-04T00:07:06.725Z,30.30
2019-02-04T00:08:06.730Z,29.60
2019-02-04T00:09:06.720Z,28.50
2019-02-04T00:10:06.695Z,31.50
2019-02-04T00:11:06.715Z,32.10
2019-02-04T00:12:06.686Z,27.60
2019-02-04T00:13:06.672Z,34.20
2019-02-04T00:14:06.655Z,35.60
2019-02-04T00:15:06.641Z,29.40
2019-02-04T00:16:06.630Z,30.80
2019-02-04T00:17:06.652Z,29.60
2019-02-04T00:18:06.616Z,31.70
2019-02-04T00:19:06.613Z,30.50
2019-02-04T00:20:06.588Z,29.90
2019-02-04T00:21:06.585Z,30.80
2019-02-04T00:22:06.581Z,26.80
2019-02-04T00:23:06.623Z,33.20
2019-02-04T00:24:06.551Z,30.70
2019-02-04T00:25:06.537Z,31.70
2019-02-04T00:26:06.526Z,32.20
2019-02-04T00:27:06.519Z,35.50
2019-02-04T00:28:06.525Z,30.90
2019-02-04T00:29:06.510Z,34.90
2019-02-04T00:30:06.515Z,31.90
2019-02-04T00:31:06.477Z,32.50
2019-02-04T00:32:06.479Z,41.60
2019-02-04T00:33:06.462Z,34.00
2019-02-04T00:34:06.448Z,38.20
2019-02-04T00:35:06.436Z,36.00
2019-02-04T00:36:06.486Z,34.50
2019-02-04T00:37:06.429Z,35.80
2019-02-04T00:38:06.400Z,34.60
2019-02-04T00:39:06.396Z,36.20
2019-02-04T00:40:06.383Z,38.40
2019-02-04T00:41:06.381Z,34.60
2019-02-04T00:42:06.384Z,38.40
2019-02-04T00:43:06.375Z,39.30
2019-02-04T00:44:06.342Z,41.90
2019-02-04T00:45:06.333Z,41.20
2019-02-04T00:46:06.318Z,48.40
2019-02-04T00:47:06.307Z,40.50
2019-02-04T00:48:06.319Z,41.20
2019-02-04T00:49:06.303Z,44.90
2019-02-04T00:50:06.282Z,49.10
2019-02-04T00:51:06.266Z,45.80
2019-02-04T00:52:06.276Z,52.10
2019-02-04T00:53:06.258Z,55.20
2019-02-04T00:54:06.268Z,57.30
2019-02-04T00:55:06.235Z,58.10
2019-02-04T00:56:06.220Z,57.80
2019-02-04T00:57:06.226Z,53.40
2019-02-04T00:58:06.206Z,52.00
2019-02-04T00:59:06.188Z,44.50
2019-02-04T01:00:06.171Z,45.50
2019-02-04T01:01:06.201Z,47.30
2019-02-04T01:02:06.168Z,55.50
2019-02-04T01:03:06.356Z,47.70
2019-02-04T01:04:06.136Z,47.30
2019-02-04T01:05:06.121Z,47.20
2019-02-04T01:06:06.173Z,48.60
2019-02-04T01:07:06.139Z,43.60
2019-02-04T01:08:06.087Z,43.20
2019-02-04T01:09:06.084Z,43.90
2019-02-04T01:10:06.071Z,46.30
2019-02-04T01:11:06.055Z,44.20
2019-02-04T01:12:06.045Z,51.70
2019-02-04T01:13:06.126Z,46.10
2019-02-04T01:14:06.026Z,49.10
2019-02-04T01:15:06.018Z,52.30
2019-02-04T01:16:06.006Z,49.60
2019-02-04T01:17:06.019Z,50.90
2019-02-04T01:18:05.987Z,54.50
2019-02-04T01:19:06.018Z,50.50
2019-02-04T01:20:05.960Z,50.40
2019-02-04T01:21:05.954Z,56.00
2019-02-04T01:22:05.943Z,47.60
2019-02-04T01:23:05.930Z,51.50
2019-02-04T01:24:05.978Z,53.40
2019-02-04T01:25:06.030Z,49.60
2019-02-04T01:26:05.909Z,51.80
2019-02-04T01:27:05.894Z,52.70
2019-02-04T01:28:05.878Z,49.40
2019-02-04T01:29:05.874Z,51.20
2019-02-04T01:30:05.859Z,56.80
2019-02-04T01:31:05.895Z,54.30
2019-02-04T01:32:05.856Z,59.10
2019-02-04T01:33:05.828Z,54.20
2019-02-04T01:34:05.823Z,61.00
2019-02-04T01:35:05.813Z,59.10
2019-02-04T01:36:05.806Z,53.60
2019-02-04T01:37:05.824Z,61.40
2019-02-04T01:38:05.781Z,56.50
2019-02-04T01:39:05.811Z,61.30
2019-02-04T01:40:05.770Z,56.10
2019-02-04T01:41:05.758Z,55.40
2019-02-04T01:42:05.732Z,61.40
2019-02-04T01:43:05.744Z,61.80
2019-02-04T01:44:05.757Z,55.70
2019-02-04T01:45:05.917Z,57.80
2019-02-04T01:46:05.702Z,62.80
2019-02-04T01:47:14.349Z,54.20
2019-02-04T01:48:06.692Z,53.80
2019-02-04T01:49:05.671Z,55.70
2019-02-04T01:50:05.650Z,60.60
2019-02-04T01:51:05.637Z,53.30
2019-02-04T01:52:05.631Z,59.20
2019-02-04T01:53:05.647Z,54.10
2019-02-04T01:54:05.626Z,53.80
2019-02-04T01:55:05.602Z,59.00
2019-02-04T01:56:05.594Z,58.00
2019-02-04T01:57:05.588Z,56.20
2019-02-04T01:58:05.581Z,56.20
2019-02-04T01:59:05.601Z,53.90
2019-02-04T02:00:05.573Z,60.50
2019-02-04T02:01:05.534Z,53.80
2019-02-04T02:02:05.529Z,56.70
2019-02-04T02:03:05.568Z,56.20
2019-02-04T02:04:05.509Z,65.70
2019-02-04T02:05:05.493Z,67.20
2019-02-04T02:06:05.551Z,66.60
2019-02-04T02:07:05.475Z,65.20
2019-02-04T02:08:05.458Z,73.50
2019-02-04T02:09:05.507Z,73.50
2019-02-04T02:10:05.444Z,88.00
2019-02-04T02:11:05.444Z,76.90
2019-02-04T02:12:05.441Z,78.80
2019-02-04T02:13:05.465Z,86.60
2019-02-04T02:14:05.458Z,82.80
2019-02-04T02:15:05.393Z,87.70
2019-02-04T02:16:05.393Z,89.20
2019-02-04T02:17:05.380Z,88.30
2019-02-04T02:18:05.383Z,89.80
2019-02-04T02:19:05.368Z,79.80
2019-02-04T02:20:05.387Z,95.50
2019-02-04T02:21:05.324Z,91.80
2019-02-04T02:22:05.334Z,90.40
2019-02-04T02:23:05.340Z,90.90
2019-02-04T02:24:05.300Z,90.30
2019-02-04T02:25:05.287Z,92.60
2019-02-04T02:26:05.320Z,84.50
2019-02-04T02:27:05.263Z,86.40
2019-02-04T02:28:05.346Z,94.10
2019-02-04T02:29:05.243Z,85.80
2019-02-04T02:30:05.247Z,83.10
2019-02-04T02:31:05.227Z,83.50
2019-02-04T02:32:05.247Z,94.00
2019-02-04T02:33:05.225Z,91.00
2019-02-04T02:34:05.197Z,91.40
2019-02-04T02:35:05.183Z,88.20
2019-02-04T02:36:05.177Z,81.60
2019-02-04T02:37:05.163Z,85.60
2019-02-04T02:38:05.198Z,81.70
2019-02-04T02:39:05.198Z,82.50
2019-02-04T02:40:05.130Z,81.70
2019-02-04T02:41:05.125Z,81.00
2019-02-04T02:42:05.113Z,74.00
2019-02-04T02:43:05.102Z,76.50
2019-02-04T02:44:05.119Z,81.10
2019-02-04T02:45:05.096Z,88.70
2019-02-04T02:46:05.072Z,83.60
2019-02-04T02:47:05.064Z,75.30
2019-02-04T02:48:05.048Z,80.50
2019-02-04T02:49:05.037Z,71.90
2019-02-04T02:50:05.048Z,68.40
2019-02-04T02:51:05.051Z,72.90
2019-02-04T02:52:05.011Z,75.30
2019-02-04T02:53:05.031Z,60.60
2019-02-04T02:54:04.981Z,73.10
2019-02-04T02:55:04.976Z,68.10
2019-02-04T02:56:04.982Z,75.90
2019-02-04T02:57:04.995Z,66.50
2019-02-04T02:58:04.958Z,70.30
2019-02-04T02:59:04.941Z,66.20
2019-02-04T03:00:04.927Z,65.20
2019-02-04T03:01:04.929Z,78.10
2019-02-04T03:02:04.920Z,74.70
2019-02-04T03:03:04.959Z,71.50
2019-02-04T03:04:04.876Z,74.60
2019-02-04T03:05:04.872Z,72.50
2019-02-04T03:06:04.859Z,75.40
2019-02-04T03:07:04.844Z,78.40
2019-02-04T03:08:05.328Z,78.30
2019-02-04T03:09:04.865Z,83.00
2019-02-04T03:10:04.815Z,75.10
2019-02-04T03:11:04.807Z,68.50
2019-02-04T03:12:04.843Z,73.20
2019-02-04T03:13:04.805Z,70.20
2019-02-04T03:14:04.773Z,72.90
2019-02-04T03:15:04.811Z,67.90
2019-02-04T03:16:04.751Z,71.50
2019-02-04T03:17:04.745Z,69.60
2019-02-04T03:18:04.753Z,71.10
2019-02-04T03:19:04.733Z,63.10
2019-02-04T03:20:04.709Z,62.40
2019-02-04T03:21:04.768Z,59.50
2019-02-04T03:22:04.690Z,69.90
2019-02-04T03:23:04.685Z,59.60
2019-02-04T03:24:04.688Z,58.00
2019-02-04T03:25:04.718Z,67.40
2019-02-04T03:26:04.652Z,64.90
2019-02-04T03:27:04.700Z,65.60
2019-02-04T03:28:04.640Z,69.50
2019-02-04T03:29:04.632Z,67.70
2019-02-04T03:30:04.604Z,65.70
2019-02-04T03:31:04.605Z,67.20
2019-02-04T03:32:04.589Z,69.30
2019-02-04T03:33:04.582Z,57.90
2019-02-04T03:34:04.615Z,61.70
2019-02-04T03:35:04.563Z,52.40
2019-02-04T03:36:04.559Z,60.80
2019-02-04T03:37:04.541Z,57.50
2019-02-04T03:38:04.526Z,60.10
2019-02-04T03:39:04.538Z,58.30
2019-02-04T03:40:04.541Z,60.80
2019-02-04T03:41:04.511Z,57.90
2019-02-04T03:42:04.490Z,63.50
2019-02-04T03:43:04.472Z,59.10
2019-02-04T03:44:04.540Z,67.80
2019-02-04T03:45:04.449Z,55.40
2019-02-04T03:46:04.444Z,60.20
2019-02-04T03:47:04.470Z,60.70
2019-02-04T03:48:07.908Z,59.80
2019-02-04T03:49:05.429Z,53.40
2019-02-04T03:50:04.437Z,55.00
2019-02-04T03:51:04.392Z,54.40
2019-02-04T03:52:04.380Z,50.50
2019-02-04T03:53:04.387Z,49.50
2019-02-04T03:54:04.353Z,51.80
2019-02-04T03:55:04.370Z,47.80
2019-02-04T03:56:04.335Z,48.80
2019-02-04T03:57:04.323Z,45.10
2019-02-04T03:58:04.319Z,44.20
2019-02-04T03:59:04.356Z,46.50
2019-02-04T04:00:04.293Z,44.50
2019-02-04T04:01:04.297Z,40.90
2019-02-04T04:02:04.273Z,40.80
2019-02-04T04:03:04.261Z,47.90
2019-02-04T04:04:04.265Z,45.20
2019-02-04T04:05:04.291Z,39.50
2019-02-04T04:06:04.241Z,44.70
2019-02-04T04:07:04.231Z,44.00
2019-02-04T04:08:04.223Z,43.40
2019-02-04T04:09:04.268Z,44.50
2019-02-04T04:10:04.195Z,43.30
2019-02-04T04:11:04.260Z,45.30
2019-02-04T04:12:04.167Z,51.90
2019-02-04T04:13:04.166Z,41.20
2019-02-04T04:14:04.172Z,43.30
2019-02-04T04:15:04.141Z,42.50
2019-02-04T04:16:04.130Z,40.50
2019-02-04T04:17:04.143Z,47.50
2019-02-04T04:18:15.024Z,50.60
2019-02-04T04:19:05.114Z,43.20
2019-02-04T04:20:04.087Z,46.90
2019-02-04T04:21:04.088Z,45.70
2019-02-04T04:22:04.065Z,39.80
2019-02-04T04:23:04.172Z,45.80
2019-02-04T04:24:04.069Z,43.80
2019-02-04T04:25:04.074Z,50.90
2019-02-04T04:26:04.019Z,45.50
2019-02-04T04:27:04.016Z,50.70
2019-02-04T04:28:04.000Z,44.80
2019-02-04T04:29:03.999Z,47.10
2019-02-04T04:30:03.978Z,43.60
2019-02-04T04:31:04.108Z,46.20
2019-02-04T04:32:03.968Z,41.90
2019-02-04T04:33:03.954Z,42.60
2019-02-04T04:34:03.950Z,46.90
2019-02-04T04:35:03.927Z,44.60
2019-02-04T04:36:03.928Z,42.20
2019-02-04T04:37:03.945Z,47.00
2019-02-04T04:38:03.895Z,43.30
2019-02-04T04:39:03.888Z,47.20
2019-02-04T04:40:03.875Z,45.20
2019-02-04T04:41:03.879Z,47.10
2019-02-04T04:42:03.862Z,45.20
2019-02-04T04:43:03.889Z,47.50
2019-02-04T04:44:03.835Z,45.10
2019-02-04T04:45:03.829Z,47.90
2019-02-04T04:46:03.818Z,48.90
2019-02-04T04:47:03.835Z,47.10
2019-02-04T04:48:03.791Z,45.00
2019-02-04T04:49:03.821Z,43.80
2019-02-04T04:50:03.789Z,48.00
2019-02-04T04:51:03.764Z,44.50
2019-02-04T04:52:03.751Z,47.50
2019-02-04T04:53:03.745Z,48.20
2019-02-04T04:54:03.733Z,46.50
2019-02-04T04:55:03.799Z,44.60
2019-02-04T04:56:03.711Z,47.40
2019-02-04T04:57:03.706Z,49.50
2019-02-04T04:58:03.701Z,40.40
2019-02-04T04:59:03.681Z,50.50
2019-02-04T05:00:03.688Z,43.90
2019-02-04T05:01:03.665Z,46.30
2019-02-04T05:02:03.670Z,48.80
2019-02-04T05:03:03.634Z,42.70
2019-02-04T05:04:03.636Z,40.10
2019-02-04T05:05:03.634Z,44.10
2019-02-04T05:06:03.630Z,43.20
2019-02-04T05:07:03.599Z,44.40
2019-02-04T05:08:03.606Z,39.60
2019-02-04T05:09:03.591Z,41.50
2019-02-04T05:10:03.591Z,38.70
2019-02-04T05:11:03.604Z,42.80
2019-02-04T05:12:03.571Z,42.30
2019-02-04T05:13:03.532Z,41.80
2019-02-04T05:14:03.570Z,34.40
2019-02-04T05:15:03.520Z,38.80
2019-02-04T05:16:03.517Z,43.90
2019-02-04T05:17:03.488Z,38.70
2019-02-04T05:18:03.517Z,40.30
2019-02-04T05:19:03.490Z,42.00
2019-02-04T05:20:03.457Z,40.70
2019-02-04T05:21:03.454Z,42.70
2019-02-04T05:22:03.453Z,39.20
2019-02-04T05:23:03.425Z,33.70
2019-02-04T05:24:03.421Z,47.80
2019-02-04T05:25:03.429Z,36.00
2019-02-04T05:26:03.417Z,34.70
2019-02-04T05:27:03.419Z,32.40
2019-02-04T05:28:03.380Z,39.50
2019-02-04T05:29:03.368Z,37.50
2019-02-04T05:30:03.376Z,38.10
2019-02-04T05:31:03.350Z,35.40
2019-02-04T05:32:03.365Z,36.50
2019-02-04T05:33:03.330Z,35.80
2019-02-04T05:34:03.323Z,36.10
2019-02-04T05:35:03.668Z,38.00
2019-02-04T05:36:03.358Z,36.70
2019-02-04T05:37:03.286Z,33.50
2019-02-04T05:38:03.293Z,34.50
2019-02-04T05:39:03.269Z,31.80
2019-02-04T05:40:03.279Z,32.80
2019-02-04T05:41:03.239Z,33.50
2019-02-04T05:42:03.233Z,33.70
2019-02-04T05:43:03.410Z,31.40
2019-02-04T05:44:03.337Z,33.40
2019-02-04T05:45:03.228Z,33.10
2019-02-04T05:46:03.241Z,33.30
2019-02-04T05:47:03.174Z,32.90
2019-02-04T05:48:03.168Z,32.20
2019-02-04T05:49:03.182Z,34.30
2019-02-04T05:50:03.209Z,30.70
2019-02-04T05:51:03.151Z,34.10
2019-02-04T05:52:03.163Z,29.90
2019-02-04T05:53:03.113Z,29.40
2019-02-04T05:54:03.101Z,32.20
2019-02-04T05:55:03.128Z,30.20
2019-02-04T05:56:03.090Z,32.30
2019-02-04T05:57:03.138Z,31.00
2019-02-04T05:58:03.104Z,33.80
2019-02-04T05:59:03.057Z,32.80
2019-02-04T06:00:03.045Z,33.50
2019-02-04T06:01:03.069Z,32.80
2019-02-04T06:02:03.022Z,30.90
2019-02-04T06:03:03.033Z,31.70
2019-02-04T06:04:03.031Z,33.30
2019-02-04T06:05:03.004Z,26.00
2019-02-04T06:06:02.976Z,30.60
2019-02-04T06:07:02.994Z,32.10
2019-02-04T06:08:03.025Z,30.00
2019-02-04T06:09:03.061Z,30.50
2019-02-04T06:10:02.940Z,29.40
2019-02-04T06:11:02.946Z,29.00
2019-02-04T06:12:02.916Z,29.10
2019-02-04T06:13:02.908Z,32.30
2019-02-04T06:14:02.897Z,29.20
2019-02-04T06:15:02.922Z,30.80
2019-02-04T06:16:02.902Z,31.10
2019-02-04T06:17:02.865Z,29.00
2019-02-04T06:18:02.853Z,27.80
2019-02-04T06:19:02.855Z,32.70
2019-02-04T06:20:03.252Z,30.60
2019-02-04T06:21:02.866Z,29.60
2019-02-04T06:22:02.848Z,30.00
2019-02-04T06:23:02.804Z,29.70
2019-02-04T06:24:02.796Z,27.20
2019-02-04T06:25:02.781Z,29.50
2019-02-04T06:26:02.773Z,31.50
2019-02-04T06:27:02.775Z,27.40
2019-02-04T06:28:02.783Z,25.30
2019-02-04T06:29:02.740Z,25.80
2019-02-04T06:30:02.740Z,26.70
2019-02-04T06:31:02.715Z,33.00
2019-02-04T06:32:02.704Z,26.10
2019-02-04T06:33:02.805Z,29.60
2019-02-04T06:34:02.726Z,26.10
2019-02-04T06:35:02.676Z,25.80
2019-02-04T06:36:02.661Z,27.40
2019-02-04T06:37:02.657Z,24.60
2019-02-04T06:38:02.698Z,30.10
2019-02-04T06:39:02.656Z,25.70
2019-02-04T06:40:02.664Z,26.30
2019-02-04T06:41:02.621Z,26.00
2019-02-04T06:42:02.603Z,26.00
2019-02-04T06:43:02.689Z,30.30
2019-02-04T06:44:02.583Z,29.80
2019-02-04T06:45:02.590Z,29.90
2019-02-04T06:46:02.582Z,31.10
2019-02-04T06:47:02.559Z,30.40
2019-02-04T06:48:02.550Z,30.40
2019-02-04T06:49:12.015Z,28.70
2019-02-04T06:50:03.579Z,24.60
2019-02-04T06:51:02.520Z,31.10
2019-02-04T06:52:02.494Z,29.10
2019-02-04T06:53:02.496Z,31.50
2019-02-04T06:54:02.596Z,29.20
2019-02-04T06:55:02.493Z,29.50
2019-02-04T06:56:02.468Z,32.20
2019-02-04T06:57:02.493Z,26.90
2019-02-04T06:58:02.440Z,28.80
2019-02-04T06:59:02.442Z,29.30
2019-02-04T07:00:02.445Z,29.60
2019-02-04T07:01:02.478Z,27.10
2019-02-04T07:02:02.409Z,26.90
2019-02-04T07:03:02.392Z,29.90
2019-02-04T07:04:02.371Z,29.40
2019-02-04T07:05:02.370Z,29.90
2019-02-04T07:06:02.387Z,28.10
2019-02-04T07:07:02.363Z,25.70
2019-02-04T07:08:02.390Z,26.40
2019-02-04T07:09:02.324Z,28.30
2019-02-04T07:10:02.312Z,25.80
2019-02-04T07:11:02.315Z,29.30
2019-02-04T07:12:02.284Z,29.40
2019-02-04T07:13:02.364Z,29.70
2019-02-04T07:14:02.432Z,25.70
2019-02-04T07:15:02.261Z,25.40
2019-02-04T07:16:02.250Z,33.70
2019-02-04T07:17:02.251Z,29.10
2019-02-04T07:18:02.282Z,26.30
2019-02-04T07:19:02.211Z,29.90
2019-02-04T07:20:02.245Z,25.60
2019-02-04T07:21:02.221Z,30.30
2019-02-04T07:22:02.188Z,26.00
2019-02-04T07:23:02.193Z,27.60
2019-02-04T07:24:02.165Z,22.60
2019-02-04T07:25:02.150Z,25.90
2019-02-04T07:26:02.154Z,29.20
2019-02-04T07:27:02.129Z,28.10
2019-02-04T07:28:02.159Z,22.00
2019-02-04T07:29:02.170Z,28.20
2019-02-04T07:30:02.145Z,27.10
2019-02-04T07:31:02.092Z,25.30
2019-02-04T07:32:02.083Z,26.70
2019-02-04T07:33:02.067Z,26.30
2019-02-04T07:34:02.057Z,29.20
2019-02-04T07:35:02.057Z,24.80
2019-02-04T07:36:03.457Z,25.50
2019-02-04T07:37:02.027Z,26.70
2019-02-04T07:38:02.026Z,24.40
2019-02-04T07:39:02.029Z,28.70
2019-02-04T07:40:01.991Z,23.20
2019-02-04T07:41:02.074Z,22.60
2019-02-04T07:42:01.970Z,24.60
2019-02-04T07:43:01.997Z,24.70
2019-02-04T07:44:01.960Z,25.70
2019-02-04T07:45:01.944Z,24.50
2019-02-04T07:46:01.992Z,27.20
2019-02-04T07:47:01.945Z,21.50
2019-02-04T07:48:01.909Z,25.60
2019-02-04T07:49:01.935Z,23.10
2019-02-04T07:50:01.898Z,22.20
2019-02-04T07:51:01.882Z,22.80
2019-02-04T07:52:01.889Z,21.70
2019-02-04T07:53:01.873Z,24.60
2019-02-04T07:54:01.859Z,24.10
2019-02-04T07:55:01.837Z,22.20
2019-02-04T07:56:01.856Z,23.90
2019-02-04T07:57:01.813Z,23.90
2019-02-04T07:58:01.809Z,26.30
2019-02-04T07:59:01.817Z,22.00
2019-02-04T08:00:01.792Z,23.00
2019-02-04T08:01:01.770Z,22.50
2019-02-04T08:02:01.776Z,20.60
2019-02-04T08:03:01.752Z,23.20
2019-02-04T08:04:01.740Z,25.80
2019-02-04T08:05:01.746Z,23.00
2019-02-04T08:06:01.721Z,24.60
2019-02-04T08:07:01.789Z,24.50
2019-02-04T08:08:01.730Z,24.90
2019-02-04T08:09:01.686Z,22.40
2019-02-04T08:10:01.717Z,22.60
2019-02-04T08:11:01.668Z,20.60
2019-02-04T08:12:01.678Z,21.40
2019-02-04T08:13:02.157Z,22.60
2019-02-04T08:14:01.637Z,23.70
2019-02-04T08:15:01.658Z,21.40
2019-02-04T08:16:01.627Z,22.10
2019-02-04T08:17:01.605Z,21.40
2019-02-04T08:18:01.646Z,22.00
2019-02-04T08:19:01.602Z,20.40
2019-02-04T08:20:01.623Z,21.70
2019-02-04T08:21:01.569Z,21.10
2019-02-04T08:22:01.556Z,20.90
2019-02-04T08:23:01.542Z,19.50
2019-02-04T08:24:01.871Z,20.60
2019-02-04T08:25:01.539Z,21.00
2019-02-04T08:26:01.514Z,23.50
2019-02-04T08:27:01.543Z,21.40
2019-02-04T08:28:01.506Z,21.50
2019-02-04T08:29:01.478Z,20.70
2019-02-04T08:30:01.476Z,20.00
2019-02-04T08:31:01.463Z,20.30
2019-02-04T08:32:01.474Z,21.90
2019-02-04T08:33:01.446Z,22.10
2019-02-04T08:34:01.428Z,22.80
2019-02-04T08:35:01.511Z,20.20
2019-02-04T08:36:01.431Z,20.10
2019-02-04T08:37:01.411Z,18.10
2019-02-04T08:38:01.413Z,21.00
2019-02-04T08:39:01.436Z,20.60
2019-02-04T08:40:01.363Z,20.80
2019-02-04T08:41:01.360Z,18.00
2019-02-04T08:42:01.378Z,19.40
2019-02-04T08:43:01.377Z,19.60
2019-02-04T08:44:01.329Z,17.00
2019-02-04T08:45:01.312Z,19.60
2019-02-04T08:46:01.303Z,19.90
2019-02-04T08:47:01.309Z,19.70
2019-02-04T08:48:01.300Z,19.20
2019-02-04T08:49:01.417Z,18.90
2019-02-04T08:50:01.879Z,20.00
2019-02-04T08:51:01.275Z,19.00
2019-02-04T08:52:01.254Z,22.90
2019-02-04T08:53:01.276Z,20.20
2019-02-04T08:54:01.252Z,20.00
2019-02-04T08:55:01.272Z,20.40
2019-02-04T08:56:01.201Z,19.40
2019-02-04T08:57:01.217Z,20.60
2019-02-04T08:58:01.189Z,17.90
2019-02-04T08:59:01.182Z,21.70
2019-02-04T09:00:01.176Z,15.70
2019-02-04T09:01:01.144Z,21.00
2019-02-04T09:02:01.140Z,17.00
2019-02-04T09:03:01.189Z,18.40
2019-02-04T09:04:01.121Z,16.30
2019-02-04T09:05:01.119Z,16.40
2019-02-04T09:06:01.100Z,20.50
2019-02-04T09:07:01.306Z,17.80
2019-02-04T09:08:01.087Z,19.20
2019-02-04T09:09:01.120Z,20.30
2019-02-04T09:10:01.066Z,19.00
2019-02-04T09:11:01.049Z,18.50
2019-02-04T09:12:01.035Z,17.10
2019-02-04T09:13:01.028Z,19.10
2019-02-04T09:14:01.010Z,17.80
2019-02-04T09:15:01.072Z,18.20
2019-02-04T09:16:00.996Z,15.60
2019-02-04T09:17:00.995Z,17.30
2019-02-04T09:18:00.979Z,20.90
2019-02-04T09:19:00.968Z,18.60
2019-02-04T09:20:09.600Z,19.50
2019-02-04T09:21:01.964Z,18.80
2019-02-04T09:22:00.946Z,20.20
2019-02-04T09:23:01.051Z,18.10
2019-02-04T09:24:00.918Z,16.30
2019-02-04T09:25:00.907Z,19.00
2019-02-04T09:26:00.889Z,18.90
2019-02-04T09:27:00.893Z,18.60
2019-02-04T09:28:00.882Z,18.50
2019-02-04T09:29:00.861Z,20.30
2019-02-04T09:30:00.877Z,17.90
2019-02-04T09:31:00.869Z,21.80
2019-02-04T09:32:00.841Z,18.90
2019-02-04T09:33:00.833Z,18.00
2019-02-04T09:34:00.852Z,19.10
2019-02-04T09:35:00.795Z,20.70
2019-02-04T09:36:00.791Z,18.80
2019-02-04T09:37:00.787Z,20.30
2019-02-04T09:38:00.821Z,22.80
2019-02-04T09:39:00.756Z,16.70
2019-02-04T09:40:00.813Z,16.60
2019-02-04T09:41:00.773Z,18.30
2019-02-04T09:42:00.774Z,16.20
2019-02-04T09:43:00.708Z,18.90
2019-02-04T09:44:00.702Z,17.70
2019-02-04T09:45:00.693Z,17.50
2019-02-04T09:46:00.695Z,18.70
2019-02-04T09:47:00.665Z,19.10
2019-02-04T09:48:00.669Z,18.30
2019-02-04T09:49:00.849Z,17.80
2019-02-04T09:50:00.683Z,18.80
2019-02-04T09:51:00.629Z,16.30
2019-02-04T09:52:00.725Z,18.20
2019-02-04T09:53:00.617Z,17.50
2019-02-04T09:54:00.595Z,18.50
2019-02-04T09:55:00.591Z,17.90
2019-02-04T09:56:00.570Z,16.40
2019-02-04T09:57:00.564Z,18.60
2019-02-04T09:58:00.594Z,17.00
2019-02-04T09:59:00.537Z,17.40
2019-02-04T10:00:00.565Z,18.50
2019-02-04T10:01:00.522Z,16.70
2019-02-04T10:02:00.516Z,16.50
2019-02-04T10:03:00.510Z,16.80
2019-02-04T10:04:00.503Z,16.10
2019-02-04T10:05:00.497Z,19.50
2019-02-04T10:06:00.478Z,17.10
2019-02-04T10:07:00.458Z,17.60
2019-02-04T10:08:00.453Z,17.10
2019-02-04T10:09:00.445Z,14.00
2019-02-04T10:10:00.757Z,15.30
2019-02-04T10:11:00.413Z,19.00
2019-02-04T10:12:00.434Z,16.60
2019-02-04T10:13:00.399Z,15.00
2019-02-04T10:14:00.386Z,19.60
2019-02-04T10:15:00.462Z,14.40
2019-02-04T10:16:00.385Z,15.80
2019-02-04T10:17:00.347Z,17.90
2019-02-04T10:18:00.357Z,17.20
2019-02-04T10:19:00.399Z,18.30
2019-02-04T10:20:00.342Z,17.00
2019-02-04T10:21:00.417Z,15.20
2019-02-04T10:22:00.331Z,15.40
2019-02-04T10:23:00.330Z,14.40
2019-02-04T10:24:00.288Z,17.60
2019-02-04T10:25:00.271Z,15.70
2019-02-04T10:26:00.309Z,13.80
2019-02-04T10:27:00.287Z,17.60
2019-02-04T10:28:00.270Z,15.30
2019-02-04T10:29:00.255Z,14.90
2019-02-04T10:30:00.292Z,14.90
2019-02-04T10:31:00.517Z,14.70
2019-02-04T10:32:00.245Z,18.00
2019-02-04T10:33:00.214Z,17.60
2019-02-04T10:34:00.220Z,14.70
2019-02-04T10:35:00.287Z,13.70
2019-02-04T10:36:00.187Z,15.10
2019-02-04T10:37:00.193Z,14.60
2019-02-04T10:38:00.140Z,14.80
2019-02-04T10:39:00.143Z,11.20
2019-02-04T10:40:00.263Z,14.40
2019-02-04T10:41:00.175Z,15.00
2019-02-04T10:42:00.146Z,14.70
2019-02-04T10:43:00.211Z,12.60
2019-02-04T10:44:00.107Z,13.40
2019-02-04T10:45:00.316Z,13.60
2019-02-04T10:46:00.116Z,15.20
2019-02-04T10:47:00.103Z,11.80
2019-02-04T10:48:00.041Z,14.20
2019-02-04T10:49:00.037Z,16.20
2019-02-04T10:50:00.050Z,16.20
2019-02-04T10:51:00.073Z,11.30
2019-02-04T10:51:59.996Z,12.00
2019-02-04T10:52:59.974Z,12.80
2019-02-04T10:53:59.971Z,13.70
2019-02-04T10:54:59.971Z,14.30
2019-02-04T10:55:59.966Z,13.90
2019-02-04T10:56:59.959Z,15.80
2019-02-04T10:57:59.962Z,13.00
2019-02-04T10:58:59.924Z,15.60
2019-02-04T10:59:59.949Z,12.40
2019-02-04T11:00:59.927Z,12.60
2019-02-04T11:01:59.912Z,10.60
2019-02-04T11:02:59.886Z,17.30
2019-02-04T11:03:59.876Z,9.60
2019-02-04T11:04:59.922Z,11.70
2019-02-04T11:05:59.876Z,12.20
2019-02-04T11:06:59.860Z,11.00
2019-02-04T11:07:59.866Z,12.10
2019-02-04T11:08:59.848Z,14.70
2019-02-04T11:09:59.855Z,11.70
2019-02-04T11:10:59.814Z,11.30
2019-02-04T11:11:59.769Z,13.50
2019-02-04T11:12:59.803Z,12.50
2019-02-04T11:13:59.798Z,11.30
2019-02-04T11:14:59.794Z,10.40
2019-02-04T11:15:59.753Z,11.20
2019-02-04T11:16:59.810Z,10.70
2019-02-04T11:17:59.747Z,10.40
2019-02-04T11:18:59.710Z,8.10
2019-02-04T11:19:59.698Z,9.70
2019-02-04T11:20:59.847Z,10.80
2019-02-04T11:21:59.732Z,11.00
2019-02-04T11:22:59.683Z,10.10
2019-02-04T11:23:59.696Z,9.50
2019-02-04T11:24:59.650Z,9.00
2019-02-04T11:25:59.637Z,9.80
2019-02-04T11:26:59.644Z,10.60
2019-02-04T11:27:59.685Z,10.00
2019-02-04T11:28:59.624Z,9.00
2019-02-04T11:29:59.648Z,11.60
2019-02-04T11:30:59.623Z,10.30
2019-02-04T11:31:59.592Z,7.70
2019-02-04T11:32:59.594Z,10.00
2019-02-04T11:33:59.768Z,9.90
2019-02-04T11:34:59.551Z,9.60
2019-02-04T11:35:59.548Z,8.90
2019-02-04T11:36:59.543Z,10.50
2019-02-04T11:37:59.538Z,9.10
2019-02-04T11:38:59.537Z,8.90
2019-02-04T11:39:59.485Z,10.20
2019-02-04T11:40:59.515Z,10.60
2019-02-04T11:41:59.502Z,7.90
2019-02-04T11:42:59.452Z,9.60
2019-02-04T11:43:59.496Z,9.20
2019-02-04T11:44:59.473Z,9.20
2019-02-04T11:45:59.426Z,11.30
2019-02-04T11:46:59.428Z,10.60
2019-02-04T11:47:59.393Z,10.50
2019-02-04T11:48:59.391Z,9.90
2019-02-04T11:49:59.419Z,8.40
2019-02-04T11:51:09.263Z,9.60
2019-02-04T11:52:00.362Z,8.90
2019-02-04T11:52:59.349Z,10.10
2019-02-04T11:53:59.329Z,9.90
2019-02-04T11:54:59.315Z,8.80
2019-02-04T11:55:59.310Z,7.30
2019-02-04T11:56:59.321Z,9.30
2019-02-04T11:57:59.299Z,8.70
2019-02-04T11:58:59.310Z,10.70
2019-02-04T11:59:59.275Z,8.70
2019-02-04T12:00:59.255Z,9.50
2019-02-04T12:01:59.239Z,7.80
2019-02-04T12:02:59.236Z,8.80
2019-02-04T12:03:59.267Z,7.90
2019-02-04T12:04:59.219Z,9.10
2019-02-04T12:05:59.207Z,9.80
2019-02-04T12:06:59.212Z,8.90
2019-02-04T12:07:59.185Z,8.50
2019-02-04T12:08:59.179Z,9.10
2019-02-04T12:09:59.167Z,7.80
2019-02-04T12:10:59.158Z,9.30
2019-02-04T12:11:59.225Z,7.90
2019-02-04T12:12:59.126Z,8.20
2019-02-04T12:13:59.146Z,9.60
2019-02-04T12:14:59.105Z,7.80
2019-02-04T12:15:59.321Z,8.20
2019-02-04T12:16:59.256Z,10.30
2019-02-04T12:17:59.092Z,7.80
2019-02-04T12:18:59.069Z,9.40
2019-02-04T12:19:59.051Z,8.80
2019-02-04T12:20:59.043Z,8.60
2019-02-04T12:21:59.062Z,8.30
2019-02-04T12:22:59.037Z,8.70
2019-02-04T12:23:59.019Z,9.00
2019-02-04T12:24:58.996Z,8.20
2019-02-04T12:25:59.016Z,9.50
2019-02-04T12:26:58.974Z,9.50
2019-02-04T12:27:58.967Z,7.50
2019-02-04T12:28:58.971Z,8.70
2019-02-04T12:29:59.019Z,8.50
2019-02-04T12:30:58.935Z,7.10
2019-02-04T12:31:58.923Z,9.20
2019-02-04T12:32:58.918Z,10.90
2019-02-04T12:33:58.902Z,7.90
2019-02-04T12:34:58.886Z,8.80
2019-02-04T12:36:02.015Z,9.30
2019-02-04T12:36:58.891Z,8.60
2019-02-04T12:37:58.961Z,10.70
2019-02-04T12:38:58.843Z,8.80
2019-02-04T12:39:58.858Z,9.50
2019-02-04T12:40:58.828Z,8.30
2019-02-04T12:41:58.815Z,9.10
2019-02-04T12:42:58.898Z,10.10
2019-02-04T12:43:58.828Z,10.60
2019-02-04T12:44:58.786Z,9.30
2019-02-04T12:45:58.774Z,6.20
2019-02-04T12:46:58.767Z,9.50
2019-02-04T12:48:00.792Z,12.40
2019-02-04T12:48:58.832Z,7.00
2019-02-04T12:49:58.734Z,6.40
2019-02-04T12:50:58.722Z,6.40
2019-02-04T12:51:58.711Z,7.30
2019-02-04T12:52:58.697Z,7.50
2019-02-04T12:53:58.689Z,6.70
2019-02-04T12:54:58.700Z,9.00